sensor_id;sensor_type;location;lat;lon;timestamp;P1;durP1;ratioP1;P2;durP2;ratioP2
22015;SDS011;64992;51.698;-0.292;2022-12-07T08:03:33;6.22;;;1.80;;
22015;SDS011;64992;51.698;-0.292;2022-12-07T08:05:59;6.40;;;1.45;;
22015;SDS011;64992;51.698;-0.292;2022-12-07T08:08:26;2.50;;;1.65;;
22015;SDS011;64992;51.698;-0.292;2022-12-07T08:10:52;4.20;;;2.25;;
22015;SDS011;64992;51.698;-0.292;2022-12-07T08:13:18;1.95;;;1.13;;
22015;SDS011;64992;51.698;-0.292;2022-12-07T08:15:47;3.10;;;1.58;;
22015;SDS011;64992;51.698;-0.292;2022-12-07T08:18:14;4.35;;;1.67;;
22015;SDS011;64992;51.698;-0.292;2022-12-07T08:20:41;3.30;;;1.48;;
22015;SDS011;64992;51.698;-0.292;2022-12-07T08:23:08;2.42;;;1.83;;
22015;SDS011;64992;51.698;-0.292;2022-12-07T08:29:24;3.63;;;1.50;;
22015;SDS011;64992;51.698;-0.292;2022-12-07T08:31:50;5.15;;;1.67;;
22015;SDS011;64992;51.698;-0.292;2022-12-07T08:34:16;3.72;;;1.63;;
22015;SDS011;64992;51.698;-0.292;2022-12-07T08:36:43;2.95;;;1.70;;
22015;SDS011;64992;51.698;-0.292;2022-12-07T08:39:08;7.00;;;1.85;;
22015;SDS011;64992;51.698;-0.292;2022-12-07T08:41:35;3.63;;;1.50;;
22015;SDS011;64992;51.698;-0.292;2022-12-07T08:44:01;2.63;;;1.52;;
22015;SDS011;64992;51.698;-0.292;2022-12-07T08:46:31;4.00;;;1.85;;
22015;SDS011;64992;51.698;-0.292;2022-12-07T08:49:03;4.53;;;1.50;;
22015;SDS011;64992;51.698;-0.292;2022-12-07T08:51:30;2.55;;;1.45;;
22015;SDS011;64992;51.698;-0.292;2022-12-07T08:53:56;3.05;;;1.60;;
22015;SDS011;64992;51.698;-0.292;2022-12-07T08:56:24;2.40;;;1.58;;
22015;SDS011;64992;51.698;-0.292;2022-12-07T08:58:50;5.97;;;1.58;;
22015;SDS011;64992;51.698;-0.292;2022-12-07T09:01:16;2.13;;;1.42;;
22015;SDS011;64992;51.698;-0.292;2022-12-07T09:03:44;2.95;;;1.70;;
22015;SDS011;64992;51.698;-0.292;2022-12-07T09:06:10;1.80;;;1.38;;
22015;SDS011;64992;51.698;-0.292;2022-12-07T09:08:38;2.35;;;1.48;;
22015;SDS011;64992;51.698;-0.292;2022-12-07T09:11:05;3.85;;;1.60;;
22015;SDS011;64992;51.698;-0.292;2022-12-07T09:13:31;3.67;;;2.03;;
22015;SDS011;64992;51.698;-0.292;2022-12-07T09:15:57;3.22;;;1.83;;
22015;SDS011;64992;51.698;-0.292;2022-12-07T09:18:23;2.17;;;1.40;;
22015;SDS011;64992;51.698;-0.292;2022-12-07T09:20:49;3.83;;;1.63;;
22015;SDS011;64992;51.698;-0.292;2022-12-07T09:23:15;2.97;;;1.70;;
22015;SDS011;64992;51.698;-0.292;2022-12-07T09:25:41;3.10;;;1.90;;
22015;SDS011;64992;51.698;-0.292;2022-12-07T09:28:07;8.50;;;1.70;;
22015;SDS011;64992;51.698;-0.292;2022-12-07T09:30:33;2.90;;;1.55;;
22015;SDS011;64992;51.698;-0.292;2022-12-07T09:32:59;4.63;;;2.10;;
22015;SDS011;64992;51.698;-0.292;2022-12-07T09:35:26;2.70;;;1.65;;
22015;SDS011;64992;51.698;-0.292;2022-12-07T09:37:52;3.28;;;1.90;;
22015;SDS011;64992;51.698;-0.292;2022-12-07T09:40:20;3.30;;;2.15;;
22015;SDS011;64992;51.698;-0.292;2022-12-07T09:42:51;3.92;;;2.10;;
22015;SDS011;64992;51.698;-0.292;2022-12-07T09:45:21;5.75;;;2.03;;
22015;SDS011;64992;51.698;-0.292;2022-12-07T09:47:48;3.13;;;2.60;;
22015;SDS011;64992;51.698;-0.292;2022-12-07T09:50:19;2.92;;;1.88;;
22015;SDS011;64992;51.698;-0.292;2022-12-07T09:52:46;2.28;;;1.70;;
22015;SDS011;64992;51.698;-0.292;2022-12-07T09:55:13;7.47;;;1.83;;
22015;SDS011;64992;51.698;-0.292;2022-12-07T09:57:40;5.28;;;1.88;;
22015;SDS011;64992;51.698;-0.292;2022-12-07T10:00:10;19.92;;;2.05;;
22015;SDS011;64992;51.698;-0.292;2022-12-07T10:05:06;12.45;;;2.70;;
22015;SDS011;64992;51.698;-0.292;2022-12-07T10:07:33;6.75;;;2.28;;
22015;SDS011;64992;51.698;-0.292;2022-12-07T10:09:59;8.07;;;2.28;;
22015;SDS011;64992;51.698;-0.292;2022-12-07T10:12:25;2.55;;;1.48;;
22015;SDS011;64992;51.698;-0.292;2022-12-07T10:15:02;2.60;;;1.60;;
22015;SDS011;64992;51.698;-0.292;2022-12-07T10:17:36;2.28;;;1.60;;
22015;SDS011;64992;51.698;-0.292;2022-12-07T10:20:14;2.58;;;1.80;;
22015;SDS011;64992;51.698;-0.292;2022-12-07T10:25:22;4.55;;;1.65;;
22015;SDS011;64992;51.698;-0.292;2022-12-07T10:30:50;4.65;;;1.63;;
22015;SDS011;64992;51.698;-0.292;2022-12-07T10:33:38;2.92;;;1.40;;
22015;SDS011;64992;51.698;-0.292;2022-12-07T10:36:17;6.18;;;1.75;;
22015;SDS011;64992;51.698;-0.292;2022-12-07T10:38:48;1.60;;;1.50;;
22015;SDS011;64992;51.698;-0.292;2022-12-07T10:41:15;2.88;;;1.67;;
22015;SDS011;64992;51.698;-0.292;2022-12-07T10:43:48;2.70;;;1.42;;
22015;SDS011;64992;51.698;-0.292;2022-12-07T10:46:31;9.68;;;1.77;;
22015;SDS011;64992;51.698;-0.292;2022-12-07T10:56:50;3.10;;;1.83;;
22015;SDS011;64992;51.698;-0.292;2022-12-07T11:01:57;8.18;;;1.85;;
22015;SDS011;64992;51.698;-0.292;2022-12-07T11:04:43;4.93;;;1.77;;
22015;SDS011;64992;51.698;-0.292;2022-12-07T11:12:14;3.10;;;1.63;;
22015;SDS011;64992;51.698;-0.292;2022-12-07T11:23:11;2.33;;;1.58;;
22015;SDS011;64992;51.698;-0.292;2022-12-07T11:25:47;2.67;;;1.85;;
22015;SDS011;64992;51.698;-0.292;2022-12-07T11:33:46;5.50;;;1.50;;
22015;SDS011;64992;51.698;-0.292;2022-12-07T11:38:52;3.03;;;1.40;;
22015;SDS011;64992;51.698;-0.292;2022-12-07T11:41:23;3.45;;;1.50;;
22015;SDS011;64992;51.698;-0.292;2022-12-07T11:46:17;2.17;;;1.00;;
22015;SDS011;64992;51.698;-0.292;2022-12-07T11:51:10;3.42;;;1.77;;
22015;SDS011;64992;51.698;-0.292;2022-12-07T11:53:49;3.50;;;1.63;;
22015;SDS011;64992;51.698;-0.292;2022-12-07T11:56:19;3.33;;;1.35;;
22015;SDS011;64992;51.698;-0.292;2022-12-07T12:01:18;1.52;;;1.35;;
22015;SDS011;64992;51.698;-0.292;2022-12-07T12:03:50;2.38;;;1.50;;
22015;SDS011;64992;51.698;-0.292;2022-12-07T12:06:16;1.98;;;1.30;;
22015;SDS011;64992;51.698;-0.292;2022-12-07T12:08:44;4.55;;;1.55;;
22015;SDS011;64992;51.698;-0.292;2022-12-07T12:11:28;3.08;;;1.52;;
22015;SDS011;64992;51.698;-0.292;2022-12-07T12:21:34;2.15;;;1.38;;
22015;SDS011;64992;51.698;-0.292;2022-12-07T12:26:29;3.30;;;1.95;;
22015;SDS011;64992;51.698;-0.292;2022-12-07T12:29:00;2.85;;;1.60;;
22015;SDS011;64992;51.698;-0.292;2022-12-07T12:33:54;2.33;;;1.40;;
22015;SDS011;64992;51.698;-0.292;2022-12-07T12:36:24;3.35;;;1.70;;
22015;SDS011;64992;51.698;-0.292;2022-12-07T12:51:50;3.85;;;1.67;;
22015;SDS011;64992;51.698;-0.292;2022-12-07T12:54:26;2.85;;;1.63;;
22015;SDS011;64992;51.698;-0.292;2022-12-07T13:10:09;4.55;;;1.63;;
22015;SDS011;64992;51.698;-0.292;2022-12-07T13:13:00;2.65;;;1.50;;
22015;SDS011;64992;51.698;-0.292;2022-12-07T13:21:39;2.40;;;1.67;;
22015;SDS011;64992;51.698;-0.292;2022-12-07T13:23:27;5.93;;;1.63;;
22015;SDS011;64992;51.698;-0.292;2022-12-07T13:26:02;4.22;;;1.70;;
22015;SDS011;64992;51.698;-0.292;2022-12-07T13:28:35;3.63;;;1.60;;
22015;SDS011;64992;51.698;-0.292;2022-12-07T13:33:30;5.22;;;2.00;;
22015;SDS011;64992;51.698;-0.292;2022-12-07T13:35:56;2.53;;;1.60;;
22015;SDS011;64992;51.698;-0.292;2022-12-07T13:38:27;3.97;;;1.38;;
22015;SDS011;64992;51.698;-0.292;2022-12-07T13:43:29;3.22;;;1.65;;
22015;SDS011;64992;51.698;-0.292;2022-12-07T13:45:58;3.83;;;1.45;;
22015;SDS011;64992;51.698;-0.292;2022-12-07T13:48:36;4.93;;;1.50;;
22015;SDS011;64992;51.698;-0.292;2022-12-07T13:51:14;2.67;;;1.50;;
22015;SDS011;64992;51.698;-0.292;2022-12-07T13:53:52;3.45;;;1.17;;
22015;SDS011;64992;51.698;-0.292;2022-12-07T13:56:21;5.43;;;1.30;;
22015;SDS011;64992;51.698;-0.292;2022-12-07T13:58:47;4.78;;;1.85;;
22015;SDS011;64992;51.698;-0.292;2022-12-07T14:01:13;3.28;;;1.50;;
22015;SDS011;64992;51.698;-0.292;2022-12-07T14:03:39;2.20;;;1.40;;
22015;SDS011;64992;51.698;-0.292;2022-12-07T14:06:25;2.55;;;1.30;;
22015;SDS011;64992;51.698;-0.292;2022-12-07T14:09:14;1.55;;;1.20;;
22015;SDS011;64992;51.698;-0.292;2022-12-07T14:11:42;1.45;;;1.00;;
22015;SDS011;64992;51.698;-0.292;2022-12-07T14:14:13;2.33;;;0.93;;
22015;SDS011;64992;51.698;-0.292;2022-12-07T14:16:40;2.58;;;1.25;;
22015;SDS011;64992;51.698;-0.292;2022-12-07T14:19:38;2.33;;;1.40;;
22015;SDS011;64992;51.698;-0.292;2022-12-07T14:22:08;1.88;;;1.60;;
22015;SDS011;64992;51.698;-0.292;2022-12-07T14:24:41;2.03;;;1.10;;
22015;SDS011;64992;51.698;-0.292;2022-12-07T14:27:16;1.17;;;0.95;;
22015;SDS011;64992;51.698;-0.292;2022-12-07T14:29:42;0.82;;;0.82;;
22015;SDS011;64992;51.698;-0.292;2022-12-07T14:32:24;2.70;;;1.30;;
22015;SDS011;64992;51.698;-0.292;2022-12-07T14:34:58;2.35;;;1.23;;
22015;SDS011;64992;51.698;-0.292;2022-12-07T14:37:25;3.53;;;1.10;;
22015;SDS011;64992;51.698;-0.292;2022-12-07T14:39:51;0.93;;;0.82;;
22015;SDS011;64992;51.698;-0.292;2022-12-07T14:42:17;1.88;;;1.05;;
22015;SDS011;64992;51.698;-0.292;2022-12-07T14:44:43;3.60;;;1.10;;
22015;SDS011;64992;51.698;-0.292;2022-12-07T14:47:10;1.55;;;1.25;;
22015;SDS011;64992;51.698;-0.292;2022-12-07T14:49:36;1.80;;;1.00;;
22015;SDS011;64992;51.698;-0.292;2022-12-07T14:52:02;2.08;;;1.20;;
22015;SDS011;64992;51.698;-0.292;2022-12-07T14:54:29;1.60;;;1.17;;
22015;SDS011;64992;51.698;-0.292;2022-12-07T14:56:56;1.20;;;1.10;;
22015;SDS011;64992;51.698;-0.292;2022-12-07T14:59:22;1.88;;;0.93;;
22015;SDS011;64992;51.698;-0.292;2022-12-07T15:01:48;1.00;;;0.90;;
22015;SDS011;64992;51.698;-0.292;2022-12-07T15:04:14;2.90;;;1.15;;
22015;SDS011;64992;51.698;-0.292;2022-12-07T15:06:40;1.83;;;1.00;;
22015;SDS011;64992;51.698;-0.292;2022-12-07T15:09:09;1.48;;;1.33;;
22015;SDS011;64992;51.698;-0.292;2022-12-07T15:11:35;1.77;;;1.13;;
22015;SDS011;64992;51.698;-0.292;2022-12-07T15:14:01;1.30;;;1.08;;
22015;SDS011;64992;51.698;-0.292;2022-12-07T15:16:33;1.95;;;1.15;;
22015;SDS011;64992;51.698;-0.292;2022-12-07T15:18:59;1.85;;;0.80;;
22015;SDS011;64992;51.698;-0.292;2022-12-07T15:21:25;1.30;;;0.90;;
22015;SDS011;64992;51.698;-0.292;2022-12-07T15:23:51;2.90;;;1.13;;
22015;SDS011;64992;51.698;-0.292;2022-12-07T15:26:17;1.98;;;1.10;;
22015;SDS011;64992;51.698;-0.292;2022-12-07T15:28:43;1.90;;;1.15;;
22015;SDS011;64992;51.698;-0.292;2022-12-07T15:31:13;1.35;;;1.00;;
22015;SDS011;64992;51.698;-0.292;2022-12-07T15:33:39;1.40;;;1.08;;
22015;SDS011;64992;51.698;-0.292;2022-12-07T15:36:05;3.03;;;1.23;;
22015;SDS011;64992;51.698;-0.292;2022-12-07T15:38:31;2.35;;;1.10;;
22015;SDS011;64992;51.698;-0.292;2022-12-07T15:40:57;3.47;;;1.17;;
22015;SDS011;64992;51.698;-0.292;2022-12-07T15:43:23;1.00;;;0.90;;
22015;SDS011;64992;51.698;-0.292;2022-12-07T15:46:08;1.27;;;1.00;;
22015;SDS011;64992;51.698;-0.292;2022-12-07T15:48:34;1.63;;;1.00;;
22015;SDS011;64992;51.698;-0.292;2022-12-07T15:51:04;1.08;;;0.98;;
22015;SDS011;64992;51.698;-0.292;2022-12-07T15:53:30;3.35;;;1.60;;
22015;SDS011;64992;51.698;-0.292;2022-12-07T15:55:56;1.17;;;0.95;;
22015;SDS011;64992;51.698;-0.292;2022-12-07T15:58:22;1.75;;;1.15;;
22015;SDS011;64992;51.698;-0.292;2022-12-07T16:00:48;2.95;;;1.35;;
22015;SDS011;64992;51.698;-0.292;2022-12-07T16:03:14;2.00;;;1.13;;
22015;SDS011;64992;51.698;-0.292;2022-12-07T16:05:40;3.35;;;1.20;;
22015;SDS011;64992;51.698;-0.292;2022-12-07T16:08:06;2.47;;;1.48;;
22015;SDS011;64992;51.698;-0.292;2022-12-07T16:10:32;4.07;;;1.40;;
22015;SDS011;64992;51.698;-0.292;2022-12-07T16:12:58;2.00;;;1.35;;
22015;SDS011;64992;51.698;-0.292;2022-12-07T16:15:25;2.47;;;1.20;;
22015;SDS011;64992;51.698;-0.292;2022-12-07T16:17:51;3.35;;;1.38;;
22015;SDS011;64992;51.698;-0.292;2022-12-07T16:20:18;4.13;;;1.60;;
22015;SDS011;64992;51.698;-0.292;2022-12-07T16:22:44;3.70;;;1.58;;
22015;SDS011;64992;51.698;-0.292;2022-12-07T16:25:10;9.48;;;1.70;;
22015;SDS011;64992;51.698;-0.292;2022-12-07T16:27:36;2.70;;;1.23;;
22015;SDS011;64992;51.698;-0.292;2022-12-07T16:30:02;2.30;;;1.10;;
22015;SDS011;64992;51.698;-0.292;2022-12-07T16:32:28;3.97;;;1.63;;
22015;SDS011;64992;51.698;-0.292;2022-12-07T16:34:54;4.40;;;1.40;;
22015;SDS011;64992;51.698;-0.292;2022-12-07T16:37:20;2.53;;;1.50;;
22015;SDS011;64992;51.698;-0.292;2022-12-07T16:39:46;2.63;;;1.30;;
22015;SDS011;64992;51.698;-0.292;2022-12-07T16:42:12;2.53;;;1.55;;
22015;SDS011;64992;51.698;-0.292;2022-12-07T16:44:38;2.85;;;1.70;;
22015;SDS011;64992;51.698;-0.292;2022-12-07T16:47:05;3.97;;;1.67;;
22015;SDS011;64992;51.698;-0.292;2022-12-07T16:49:31;3.60;;;1.63;;
22015;SDS011;64992;51.698;-0.292;2022-12-07T16:51:57;6.57;;;1.05;;
22015;SDS011;64992;51.698;-0.292;2022-12-07T16:54:23;6.78;;;1.42;;
22015;SDS011;64992;51.698;-0.292;2022-12-07T16:56:49;9.73;;;1.63;;
22015;SDS011;64992;51.698;-0.292;2022-12-07T16:59:15;4.55;;;1.63;;
22015;SDS011;64992;51.698;-0.292;2022-12-07T17:01:42;1.95;;;1.38;;
22015;SDS011;64992;51.698;-0.292;2022-12-07T17:04:08;3.30;;;1.35;;
22015;SDS011;64992;51.698;-0.292;2022-12-07T17:06:35;3.15;;;1.52;;
22015;SDS011;64992;51.698;-0.292;2022-12-07T17:09:01;3.80;;;1.67;;
22015;SDS011;64992;51.698;-0.292;2022-12-07T17:11:29;4.32;;;1.52;;
22015;SDS011;64992;51.698;-0.292;2022-12-07T17:13:56;1.50;;;1.35;;
22015;SDS011;64992;51.698;-0.292;2022-12-07T17:16:41;3.95;;;1.58;;
22015;SDS011;64992;51.698;-0.292;2022-12-07T17:19:08;2.97;;;1.50;;
22015;SDS011;64992;51.698;-0.292;2022-12-07T17:21:34;4.30;;;2.15;;
22015;SDS011;64992;51.698;-0.292;2022-12-07T17:24:02;3.63;;;2.05;;
22015;SDS011;64992;51.698;-0.292;2022-12-07T17:26:29;5.68;;;2.58;;
22015;SDS011;64992;51.698;-0.292;2022-12-07T17:28:55;4.40;;;2.67;;
22015;SDS011;64992;51.698;-0.292;2022-12-07T17:31:22;5.38;;;2.67;;
22015;SDS011;64992;51.698;-0.292;2022-12-07T17:33:49;6.13;;;2.72;;
22015;SDS011;64992;51.698;-0.292;2022-12-07T17:38:41;7.28;;;2.60;;
22015;SDS011;64992;51.698;-0.292;2022-12-07T17:41:11;6.53;;;2.63;;
22015;SDS011;64992;51.698;-0.292;2022-12-07T17:43:37;4.85;;;2.72;;
22015;SDS011;64992;51.698;-0.292;2022-12-07T17:46:07;4.15;;;2.63;;
22015;SDS011;64992;51.698;-0.292;2022-12-07T17:48:34;5.70;;;2.47;;
22015;SDS011;64992;51.698;-0.292;2022-12-07T17:51:00;4.93;;;2.60;;
22015;SDS011;64992;51.698;-0.292;2022-12-07T17:53:47;4.40;;;2.35;;
22015;SDS011;64992;51.698;-0.292;2022-12-07T17:56:13;8.77;;;2.50;;
22015;SDS011;64992;51.698;-0.292;2022-12-07T17:58:39;5.30;;;2.13;;
22015;SDS011;64992;51.698;-0.292;2022-12-07T18:01:08;6.10;;;2.72;;
